createdAt,value
2018-05-26T00:02:36.838Z,19.80
2018-05-26T00:05:38.085Z,19.80
2018-05-26T00:08:39.330Z,19.90
2018-05-26T00:11:40.597Z,19.80
2018-05-26T00:14:41.858Z,19.70
2018-05-26T00:17:50.002Z,19.60
2018-05-26T00:20:51.250Z,19.60
2018-05-26T00:23:52.508Z,19.60
2018-05-26T00:26:53.744Z,19.50
2018-05-26T00:29:55.699Z,19.40
2018-05-26T00:32:57.069Z,19.40
2018-05-26T00:35:58.316Z,19.40
2018-05-26T00:38:59.565Z,19.40
2018-05-26T00:42:00.803Z,19.50
2018-05-26T00:45:02.070Z,19.50
2018-05-26T00:48:03.343Z,19.60
2018-05-26T00:51:04.593Z,19.50
2018-05-26T00:54:05.850Z,19.50
2018-05-26T00:57:07.117Z,19.50
2018-05-26T01:00:08.357Z,19.40
2018-05-26T01:03:10.385Z,19.30
2018-05-26T01:06:11.643Z,19.30
2018-05-26T01:09:12.887Z,19.30
2018-05-26T01:12:14.131Z,19.20
2018-05-26T01:15:16.095Z,19.30
2018-05-26T01:18:17.333Z,19.30
2018-05-26T01:21:18.585Z,18.90
2018-05-26T01:24:19.849Z,19.00
2018-05-26T01:27:21.137Z,19.00
2018-05-26T01:30:22.364Z,19.10
2018-05-26T01:33:23.587Z,19.20
2018-05-26T01:36:25.555Z,19.30
2018-05-26T01:39:26.793Z,19.30
2018-05-26T01:42:28.045Z,19.20
2018-05-26T01:45:29.282Z,19.10
2018-05-26T01:48:30.508Z,19.10
2018-05-26T01:51:32.569Z,19.10
2018-05-26T01:54:33.827Z,19.10
2018-05-26T01:57:35.078Z,19.00
2018-05-26T02:00:36.361Z,19.00
2018-05-26T02:03:37.606Z,18.80
2018-05-26T02:06:38.831Z,18.70
2018-05-26T02:09:40.106Z,18.70
2018-05-26T02:12:41.358Z,18.70
2018-05-26T02:15:42.582Z,18.80
2018-05-26T02:18:43.833Z,18.70
2018-05-26T02:21:45.068Z,18.90
2018-05-26T02:24:46.333Z,18.90
2018-05-26T02:27:47.610Z,18.80
2018-05-26T02:30:48.888Z,18.70
2018-05-26T02:33:50.157Z,18.80
2018-05-26T02:36:51.432Z,19.00
2018-05-26T02:39:52.696Z,18.70
2018-05-26T02:42:53.971Z,18.70
2018-05-26T02:45:55.981Z,18.70
2018-05-26T02:48:57.209Z,18.60
2018-05-26T02:51:59.189Z,18.60
2018-05-26T02:55:01.147Z,18.40
2018-05-26T02:58:02.482Z,18.40
2018-05-26T03:01:04.022Z,18.20
2018-05-26T03:04:05.263Z,18.20
2018-05-26T03:07:12.630Z,18.30
2018-05-26T03:10:19.915Z,18.50
2018-05-26T03:13:27.310Z,18.70
2018-05-26T03:20:05.502Z,18.80
2018-05-26T03:23:06.784Z,18.80
2018-05-26T03:26:08.062Z,18.80
2018-05-26T03:29:09.330Z,18.50
2018-05-26T03:32:10.612Z,18.40
2018-05-26T03:35:12.603Z,18.60
2018-05-26T03:38:14.294Z,18.60
2018-05-26T03:41:15.604Z,18.50
2018-05-26T03:44:16.877Z,18.40
2018-05-26T03:47:18.121Z,18.40
2018-05-26T03:50:19.346Z,18.50
2018-05-26T03:53:20.626Z,18.30
2018-05-26T03:56:40.573Z,18.30
2018-05-26T04:00:01.168Z,18.40
2018-05-26T04:03:02.509Z,18.30
2018-05-26T04:06:03.798Z,18.40
2018-05-26T04:09:05.036Z,18.50
2018-05-26T04:12:06.319Z,18.40
2018-05-26T04:15:07.593Z,18.30
2018-05-26T04:18:08.840Z,18.20
2018-05-26T04:21:10.079Z,18.40
2018-05-26T04:24:11.314Z,18.40
2018-05-26T04:27:13.282Z,18.60
2018-05-26T04:30:23.764Z,18.50
2018-05-26T04:33:27.996Z,18.50
2018-05-26T04:36:30.240Z,18.40
2018-05-26T04:39:31.517Z,18.50
2018-05-26T04:42:32.795Z,18.50
2018-05-26T04:45:34.852Z,18.50
2018-05-26T04:48:38.197Z,18.60
2018-05-26T04:51:43.297Z,18.50
2018-05-26T04:54:46.023Z,18.60
2018-05-26T04:57:49.335Z,18.60
2018-05-26T05:00:51.049Z,18.50
2018-05-26T05:03:55.003Z,18.60
2018-05-26T05:06:57.436Z,18.60
2018-05-26T05:10:00.458Z,18.70
2018-05-26T05:13:02.561Z,18.50
2018-05-26T05:16:11.424Z,18.30
2018-05-26T05:19:15.379Z,18.60
2018-05-26T05:22:18.224Z,18.50
2018-05-26T05:25:20.773Z,18.70
2018-05-26T05:28:22.406Z,18.80
2018-05-26T05:31:23.664Z,18.90
2018-05-26T05:34:25.590Z,18.90
2018-05-26T05:37:26.843Z,18.90
2018-05-26T05:40:28.109Z,19.00
2018-05-26T05:43:30.528Z,19.00
2018-05-26T05:46:31.817Z,19.10
2018-05-26T05:49:33.234Z,19.10
2018-05-26T05:52:34.474Z,19.10
2018-05-26T05:55:35.734Z,19.20
2018-05-26T05:58:36.974Z,19.20
2018-05-26T06:01:38.228Z,19.20
2018-05-26T06:04:40.261Z,19.30
2018-05-26T06:07:41.518Z,19.20
2018-05-26T06:10:43.033Z,19.30
2018-05-26T06:13:44.288Z,19.30
2018-05-26T06:16:45.579Z,19.40
2018-05-26T06:19:46.796Z,19.40
2018-05-26T06:22:48.054Z,19.40
2018-05-26T06:25:49.395Z,19.50
2018-05-26T06:28:50.667Z,19.50
2018-05-26T06:31:52.057Z,19.50
2018-05-26T06:34:53.153Z,19.50
2018-05-26T06:37:55.181Z,19.60
2018-05-26T06:40:56.423Z,19.60
2018-05-26T06:43:57.670Z,19.70
2018-05-26T06:46:58.908Z,19.70
2018-05-26T06:50:00.863Z,19.80
2018-05-26T06:53:02.137Z,19.80
2018-05-26T06:56:03.385Z,20.00
2018-05-26T06:59:04.670Z,20.20
2018-05-26T07:02:05.903Z,20.20
2018-05-26T07:05:07.143Z,20.30
2018-05-26T07:08:08.387Z,20.40
2018-05-26T07:11:09.698Z,20.40
2018-05-26T07:14:12.573Z,20.60
2018-05-26T07:17:13.979Z,21.00
2018-05-26T07:20:15.437Z,21.00
2018-05-26T07:23:16.906Z,21.20
2018-05-26T07:26:18.198Z,21.10
2018-05-26T07:29:19.449Z,21.20
2018-05-26T07:32:20.706Z,21.40
2018-05-26T07:35:21.952Z,21.30
2018-05-26T07:38:23.228Z,21.50
2018-05-26T07:41:24.474Z,21.50
2018-05-26T07:44:25.711Z,21.60
2018-05-26T07:47:26.963Z,21.70
2018-05-26T07:50:28.225Z,21.80
2018-05-26T07:53:29.464Z,21.80
2018-05-26T07:56:31.459Z,21.90
2018-05-26T07:59:33.468Z,21.90
2018-05-26T08:02:34.737Z,21.90
2018-05-26T08:05:35.993Z,22.00
2018-05-26T08:08:37.269Z,22.10
2018-05-26T08:11:38.523Z,22.20
2018-05-26T08:14:39.746Z,22.30
2018-05-26T08:17:41.732Z,22.40
2018-05-26T08:20:43.725Z,22.50
2018-05-26T08:23:44.972Z,22.40
2018-05-26T08:26:46.996Z,22.60
2018-05-26T08:29:48.351Z,22.60
2018-05-26T08:32:50.638Z,22.70
2018-05-26T08:35:51.899Z,22.80
2018-05-26T08:38:53.151Z,22.90
2018-05-26T08:41:54.390Z,22.90
2018-05-26T08:44:55.661Z,23.00
2018-05-26T08:47:57.649Z,23.10
2018-05-26T08:50:59.622Z,23.20
2018-05-26T08:54:01.603Z,23.20
2018-05-26T08:57:03.636Z,23.40
2018-05-26T09:00:04.882Z,23.30
2018-05-26T09:03:06.134Z,23.50
2018-05-26T09:06:07.377Z,23.50
2018-05-26T09:09:09.362Z,23.50
2018-05-26T09:12:11.361Z,23.60
2018-05-26T09:15:12.622Z,23.60
2018-05-26T09:18:13.881Z,23.80
2018-05-26T09:21:15.155Z,23.80
2018-05-26T09:24:16.417Z,23.80
2018-05-26T09:27:17.681Z,23.90
2018-05-26T09:30:18.958Z,23.90
2018-05-26T09:33:20.912Z,23.90
2018-05-26T09:36:22.154Z,23.90
2018-05-26T09:39:24.168Z,24.20
2018-05-26T09:42:25.415Z,24.20
2018-05-26T09:45:26.677Z,24.20
2018-05-26T09:48:27.921Z,24.20
2018-05-26T09:51:29.934Z,24.30
2018-05-26T09:54:31.185Z,24.30
2018-05-26T09:57:32.438Z,24.40
2018-05-26T10:00:34.449Z,24.50
2018-05-26T10:03:35.780Z,24.50
2018-05-26T10:06:37.757Z,24.70
2018-05-26T10:09:39.747Z,24.80
2018-05-26T10:12:41.719Z,24.70
2018-05-26T10:15:43.714Z,24.80
2018-05-26T10:18:44.953Z,24.80
2018-05-26T10:21:47.013Z,24.90
2018-05-26T10:24:48.349Z,24.90
2018-05-26T10:27:49.641Z,25.00
2018-05-26T10:30:50.877Z,25.00
2018-05-26T10:33:52.155Z,25.20
2018-05-26T10:36:53.371Z,25.20
2018-05-26T10:39:54.634Z,25.30
2018-05-26T10:42:55.871Z,25.40
2018-05-26T10:46:15.784Z,25.30
2018-05-26T10:49:17.789Z,25.60
2018-05-26T10:52:19.034Z,25.50
2018-05-26T10:55:21.045Z,25.60
2018-05-26T10:58:22.276Z,25.60
2018-05-26T11:01:24.294Z,25.10
2018-05-26T11:04:25.576Z,25.10
2018-05-26T11:07:26.789Z,25.00
2018-05-26T11:10:28.767Z,24.60
2018-05-26T11:13:30.783Z,24.50
2018-05-26T11:16:32.046Z,24.50
2018-05-26T11:19:33.285Z,24.70
2018-05-26T11:22:34.529Z,24.80
2018-05-26T11:25:36.564Z,25.10
2018-05-26T11:28:37.824Z,25.10
2018-05-26T11:31:39.121Z,25.20
2018-05-26T11:34:40.399Z,25.40
2018-05-26T11:37:42.379Z,25.70
2018-05-26T11:40:44.368Z,26.00
2018-05-26T11:43:46.372Z,26.20
2018-05-26T11:46:47.604Z,26.20
2018-05-26T11:49:49.601Z,26.60
2018-05-26T11:52:50.877Z,26.60
2018-05-26T11:55:52.095Z,26.70
2018-05-26T11:58:53.357Z,26.90
2018-05-26T12:01:54.645Z,26.80
2018-05-26T12:04:56.626Z,26.50
2018-05-26T12:07:58.642Z,26.80
2018-05-26T12:10:59.898Z,26.80
2018-05-26T12:14:01.161Z,27.00
2018-05-26T12:17:02.437Z,27.10
2018-05-26T12:20:03.679Z,27.10
2018-05-26T12:23:04.933Z,27.20
2018-05-26T12:26:06.221Z,27.10
2018-05-26T12:29:07.443Z,27.20
2018-05-26T12:32:09.424Z,27.50
2018-05-26T12:35:11.415Z,27.50
2018-05-26T12:38:12.693Z,27.50
2018-05-26T12:41:13.999Z,27.70
2018-05-26T12:44:15.258Z,27.70
2018-05-26T12:47:16.496Z,27.80
2018-05-26T12:50:17.789Z,27.80
2018-05-26T12:53:19.037Z,27.50
2018-05-26T12:56:20.293Z,27.40
2018-05-26T12:59:21.511Z,27.60
2018-05-26T13:02:23.503Z,27.90
2018-05-26T13:05:24.774Z,27.90
2018-05-26T13:08:26.064Z,28.10
2018-05-26T13:11:27.319Z,28.10
2018-05-26T13:14:28.597Z,28.30
2018-05-26T13:17:29.858Z,28.10
2018-05-26T13:20:31.114Z,28.10
2018-05-26T13:23:32.336Z,28.30
2018-05-26T13:26:34.357Z,28.60
2018-05-26T13:29:35.600Z,28.60
2018-05-26T13:32:36.855Z,28.80
2018-05-26T13:35:38.110Z,29.00
2018-05-26T13:38:40.088Z,28.90
2018-05-26T13:41:42.093Z,28.80
2018-05-26T13:44:43.365Z,28.70
2018-05-26T13:47:44.616Z,28.50
2018-05-26T13:50:45.976Z,28.00
2018-05-26T13:53:47.141Z,27.40
2018-05-26T13:56:49.114Z,27.10
2018-05-26T13:59:50.366Z,27.10
2018-05-26T14:02:52.382Z,28.10
2018-05-26T14:05:53.724Z,28.10
2018-05-26T14:08:55.007Z,28.60
2018-05-26T14:11:56.270Z,28.70
2018-05-26T14:14:57.540Z,28.80
2018-05-26T14:17:58.798Z,29.00
2018-05-26T14:21:00.041Z,29.10
2018-05-26T14:24:01.281Z,29.20
2018-05-26T14:27:03.300Z,29.40
2018-05-26T14:30:04.545Z,29.30
2018-05-26T14:33:05.787Z,29.40
2018-05-26T14:36:07.761Z,29.60
2018-05-26T14:39:09.006Z,29.60
2018-05-26T14:42:10.332Z,29.60
2018-05-26T14:45:12.317Z,29.50
2018-05-26T14:48:13.543Z,29.50
2018-05-26T14:51:15.510Z,29.70
2018-05-26T14:54:16.765Z,29.70
2018-05-26T14:57:18.021Z,29.60
2018-05-26T15:00:19.271Z,29.60
2018-05-26T15:03:20.502Z,29.50
2018-05-26T15:06:21.738Z,29.60
2018-05-26T15:09:23.731Z,29.80
2018-05-26T15:12:24.991Z,29.80
2018-05-26T15:15:26.231Z,29.70
2018-05-26T15:18:27.495Z,29.60
2018-05-26T15:21:29.508Z,29.60
2018-05-26T15:24:30.817Z,29.50
2018-05-26T15:27:32.621Z,29.70
2018-05-26T15:30:34.657Z,29.50
2018-05-26T15:33:36.368Z,29.50
2018-05-26T15:36:40.035Z,29.40
2018-05-26T15:39:42.658Z,29.40
2018-05-26T15:42:44.527Z,29.20
2018-05-26T15:45:48.304Z,29.10
2018-05-26T15:48:49.851Z,28.90
2018-05-26T15:51:52.322Z,28.60
2018-05-26T15:54:54.034Z,28.60
2018-05-26T15:57:55.905Z,28.40
2018-05-26T16:00:57.193Z,28.20
2018-05-26T16:03:58.464Z,28.00
2018-05-26T16:06:59.785Z,27.70
2018-05-26T16:10:01.767Z,27.40
2018-05-26T16:13:03.961Z,27.30
2018-05-26T16:16:06.280Z,27.30
2018-05-26T16:19:07.598Z,27.20
2018-05-26T16:22:09.078Z,27.10
2018-05-26T16:25:12.079Z,27.00
2018-05-26T16:28:14.246Z,27.00
2018-05-26T16:31:15.610Z,26.90
2018-05-26T16:34:17.172Z,26.90
2018-05-26T16:37:18.575Z,26.80
2018-05-26T16:40:19.979Z,26.80
2018-05-26T16:43:21.636Z,26.90
2018-05-26T16:46:24.240Z,26.80
2018-05-26T16:49:25.546Z,26.80
2018-05-26T16:52:27.355Z,26.70
2018-05-26T16:55:28.655Z,26.80
2018-05-26T16:58:30.492Z,26.60
2018-05-26T17:01:32.264Z,26.60
2018-05-26T17:04:34.292Z,26.60
2018-05-26T17:07:35.891Z,26.60
2018-05-26T17:10:37.645Z,26.50
2018-05-26T17:13:39.159Z,26.40
2018-05-26T17:16:40.432Z,26.40
2018-05-26T17:19:42.188Z,26.40
2018-05-26T17:22:43.621Z,26.50
2018-05-26T17:25:45.685Z,26.40
2018-05-26T17:28:47.526Z,26.40
2018-05-26T17:31:49.934Z,26.20
2018-05-26T17:34:51.300Z,26.20
2018-05-26T17:37:52.759Z,26.20
2018-05-26T17:40:54.355Z,26.20
2018-05-26T17:43:56.380Z,26.10
2018-05-26T17:46:57.665Z,26.10
2018-05-26T17:49:59.454Z,26.10
2018-05-26T17:53:00.726Z,26.00
2018-05-26T17:56:02.508Z,26.00
2018-05-26T17:59:03.795Z,26.00
2018-05-26T18:02:05.398Z,26.00
2018-05-26T18:05:08.206Z,25.90
2018-05-26T18:08:09.455Z,25.90
2018-05-26T18:11:10.705Z,25.90
2018-05-26T18:14:11.973Z,25.90
2018-05-26T18:17:13.211Z,25.90
2018-05-26T18:20:14.480Z,25.80
2018-05-26T18:23:15.715Z,25.80
2018-05-26T18:26:17.746Z,25.90
2018-05-26T18:29:19.001Z,25.80
2018-05-26T18:32:20.300Z,25.80
2018-05-26T18:35:21.543Z,25.80
2018-05-26T18:38:22.815Z,25.70
2018-05-26T18:41:24.056Z,25.60
2018-05-26T18:44:25.330Z,25.50
2018-05-26T18:47:26.573Z,25.40
2018-05-26T18:50:27.825Z,25.30
2018-05-26T18:53:29.043Z,25.10
2018-05-26T18:56:34.717Z,25.20
2018-05-26T18:59:36.471Z,25.00
2018-05-26T19:02:38.614Z,25.10
2018-05-26T19:05:40.220Z,24.90
2018-05-26T19:08:41.499Z,24.60
2018-05-26T19:11:43.160Z,24.50
2018-05-26T19:14:45.781Z,24.50
2018-05-26T19:17:47.104Z,24.50
2018-05-26T19:20:48.358Z,24.50
2018-05-26T19:23:50.712Z,24.40
2018-05-26T19:26:53.204Z,24.20
2018-05-26T19:29:55.301Z,24.20
2018-05-26T19:32:59.144Z,24.10
2018-05-26T19:36:00.367Z,24.10
2018-05-26T19:39:01.887Z,24.20
2018-05-26T19:42:03.274Z,24.10
2018-05-26T19:45:04.543Z,24.10
2018-05-26T19:48:05.919Z,24.10
2018-05-26T19:51:08.055Z,23.90
2018-05-26T19:54:09.661Z,23.90
2018-05-26T19:57:11.020Z,23.80
2018-05-26T20:00:12.585Z,23.70
2018-05-26T20:03:13.954Z,23.70
2018-05-26T20:06:15.513Z,23.80
2018-05-26T20:09:17.132Z,23.60
2018-05-26T20:12:19.610Z,23.40
2018-05-26T20:15:21.453Z,23.50
2018-05-26T20:18:22.717Z,23.40
2018-05-26T20:21:24.009Z,23.60
2018-05-26T20:24:25.439Z,23.60
2018-05-26T20:27:27.236Z,23.30
2018-05-26T20:30:28.506Z,23.40
2018-05-26T20:33:31.066Z,23.50
2018-05-26T20:36:32.494Z,23.60
2018-05-26T20:39:34.847Z,23.60
2018-05-26T20:42:36.095Z,23.50
2018-05-26T20:45:37.379Z,23.20
2018-05-26T20:48:38.658Z,23.10
2018-05-26T20:51:40.320Z,23.10
2018-05-26T20:54:41.682Z,23.00
2018-05-26T20:57:43.080Z,22.80
2018-05-26T21:00:51.244Z,22.90
2018-05-26T21:03:52.495Z,22.80
2018-05-26T21:06:53.788Z,22.90
2018-05-26T21:09:55.026Z,22.70
2018-05-26T21:12:56.365Z,22.60
2018-05-26T21:15:58.361Z,22.60
2018-05-26T21:18:59.615Z,22.60
2018-05-26T21:22:01.859Z,22.40
2018-05-26T21:25:03.122Z,22.40
2018-05-26T21:28:04.364Z,22.50
2018-05-26T21:31:05.614Z,22.50
2018-05-26T21:34:06.839Z,22.50
2018-05-26T21:37:08.098Z,22.40
2018-05-26T21:40:09.346Z,22.40
2018-05-26T21:43:10.613Z,22.20
2018-05-26T21:46:11.856Z,22.30
2018-05-26T21:49:13.117Z,22.40
2018-05-26T21:52:14.373Z,22.50
2018-05-26T21:55:15.676Z,22.20
2018-05-26T21:58:16.936Z,22.40
2018-05-26T22:01:18.253Z,22.30
2018-05-26T22:04:19.481Z,22.40
2018-05-26T22:07:21.450Z,22.10
2018-05-26T22:10:24.695Z,22.10
2018-05-26T22:13:27.049Z,22.00
2018-05-26T22:16:29.062Z,22.40
2018-05-26T22:19:30.324Z,22.40
2018-05-26T22:22:31.631Z,22.50
2018-05-26T22:25:32.882Z,22.60
2018-05-26T22:28:34.225Z,22.50
2018-05-26T22:31:35.486Z,22.50
2018-05-26T22:34:36.794Z,22.30
2018-05-26T22:37:38.018Z,21.90
2018-05-26T22:40:39.274Z,21.80
2018-05-26T22:43:40.521Z,21.60
2018-05-26T22:46:42.504Z,21.50
2018-05-26T22:49:44.470Z,21.50
2018-05-26T22:52:46.461Z,21.50
2018-05-26T22:55:55.357Z,21.60
2018-05-26T22:58:56.613Z,21.60
2018-05-26T23:01:57.888Z,21.60
2018-05-26T23:04:59.149Z,21.50
2018-05-26T23:08:00.375Z,21.50
2018-05-26T23:11:01.642Z,21.60
2018-05-26T23:14:02.889Z,21.60
2018-05-26T23:17:04.885Z,21.50
2018-05-26T23:20:06.162Z,21.50
2018-05-26T23:23:07.450Z,21.70
2018-05-26T23:26:08.695Z,21.70
2018-05-26T23:29:09.979Z,21.60
2018-05-26T23:32:11.212Z,21.60
2018-05-26T23:35:12.482Z,21.80
2018-05-26T23:38:13.901Z,21.80
2018-05-26T23:41:16.165Z,21.80
2018-05-26T23:44:17.526Z,21.70
2018-05-26T23:47:18.779Z,21.60
2018-05-26T23:50:19.999Z,21.50
2018-05-26T23:53:21.263Z,21.20
2018-05-26T23:56:22.495Z,21.10
2018-05-26T23:59:24.147Z,21.30
